createdAt,value
2018-08-31T00:00:53.668Z,12.93
2018-08-31T00:01:53.664Z,12.93
2018-08-31T00:02:53.661Z,12.91
2018-08-31T00:03:53.660Z,12.95
2018-08-31T00:04:53.658Z,12.97
2018-08-31T00:05:53.654Z,13.01
2018-08-31T00:06:53.653Z,13.00
2018-08-31T00:07:53.651Z,13.00
2018-08-31T00:08:53.657Z,13.08
2018-08-31T00:09:53.644Z,13.15
2018-08-31T00:10:53.643Z,13.16
2018-08-31T00:11:53.641Z,13.20
2018-08-31T00:12:53.638Z,13.15
2018-08-31T00:13:53.634Z,13.19
2018-08-31T00:14:53.633Z,13.19
2018-08-31T00:15:53.631Z,13.09
2018-08-31T00:16:53.628Z,13.09
2018-08-31T00:17:53.625Z,13.08
2018-08-31T00:18:53.623Z,13.18
2018-08-31T00:19:53.621Z,13.04
2018-08-31T00:20:53.617Z,13.00
2018-08-31T00:21:53.615Z,13.01
2018-08-31T00:22:53.616Z,12.97
2018-08-31T00:23:53.610Z,12.97
2018-08-31T00:24:53.608Z,13.01
2018-08-31T00:25:53.604Z,12.97
2018-08-31T00:26:53.602Z,13.01
2018-08-31T00:27:53.600Z,12.97
2018-08-31T00:28:53.599Z,12.95
2018-08-31T00:29:53.594Z,12.98
2018-08-31T00:30:53.590Z,13.04
2018-08-31T00:31:53.589Z,13.03
2018-08-31T00:32:53.588Z,12.97
2018-08-31T00:33:53.583Z,12.94
2018-08-31T00:34:53.581Z,12.83
2018-08-31T00:35:53.577Z,12.82
2018-08-31T00:36:53.577Z,12.85
2018-08-31T00:37:53.572Z,12.85
2018-08-31T00:38:53.570Z,12.86
2018-08-31T00:39:53.571Z,12.83
2018-08-31T00:40:53.566Z,12.79
2018-08-31T00:41:53.563Z,12.76
2018-08-31T00:42:53.561Z,12.73
2018-08-31T00:43:53.560Z,12.76
2018-08-31T00:44:53.556Z,12.68
2018-08-31T00:45:53.552Z,12.61
2018-08-31T00:46:53.551Z,12.62
2018-08-31T00:47:53.548Z,12.55
2018-08-31T00:48:53.545Z,12.58
2018-08-31T00:49:53.542Z,12.53
2018-08-31T00:50:53.538Z,12.35
2018-08-31T00:51:53.538Z,12.39
2018-08-31T00:52:53.535Z,12.45
2018-08-31T00:53:53.530Z,12.43
2018-08-31T00:54:53.528Z,12.32
2018-08-31T00:55:53.525Z,12.28
2018-08-31T00:56:53.522Z,12.35
2018-08-31T00:57:53.542Z,12.29
2018-08-31T00:58:53.517Z,12.24
2018-08-31T00:59:53.515Z,12.13
2018-08-31T01:00:53.517Z,12.13
2018-08-31T01:01:53.510Z,12.17
2018-08-31T01:02:53.507Z,12.10
2018-08-31T01:03:53.503Z,12.03
2018-08-31T01:04:53.502Z,12.12
2018-08-31T01:05:53.499Z,12.00
2018-08-31T01:06:53.495Z,12.07
2018-08-31T01:07:53.494Z,12.00
2018-08-31T01:08:53.490Z,11.90
2018-08-31T01:09:53.487Z,11.90
2018-08-31T01:10:53.486Z,11.88
2018-08-31T01:11:53.483Z,12.06
2018-08-31T01:12:53.479Z,11.94
2018-08-31T01:13:53.476Z,11.91
2018-08-31T01:14:53.474Z,11.97
2018-08-31T01:15:53.470Z,11.87
2018-08-31T01:16:53.468Z,12.00
2018-08-31T01:17:53.465Z,11.99
2018-08-31T01:18:53.463Z,11.91
2018-08-31T01:19:53.459Z,11.87
2018-08-31T01:20:53.459Z,11.97
2018-08-31T01:21:53.453Z,12.00
2018-08-31T01:22:53.452Z,11.99
2018-08-31T01:23:53.449Z,11.94
2018-08-31T01:24:53.445Z,11.95
2018-08-31T01:25:53.441Z,11.91
2018-08-31T01:26:53.440Z,11.86
2018-08-31T01:27:53.438Z,11.80
2018-08-31T01:28:53.435Z,11.87
2018-08-31T01:29:53.431Z,11.78
2018-08-31T01:30:53.428Z,11.87
2018-08-31T01:31:53.426Z,11.87
2018-08-31T01:32:53.426Z,11.80
2018-08-31T01:33:53.420Z,11.83
2018-08-31T01:34:53.416Z,11.78
2018-08-31T01:35:53.412Z,11.81
2018-08-31T01:36:53.411Z,11.84
2018-08-31T01:37:53.412Z,11.80
2018-08-31T01:38:53.404Z,11.84
2018-08-31T01:39:53.402Z,11.81
2018-08-31T01:40:53.399Z,11.90
2018-08-31T01:41:53.397Z,11.95
2018-08-31T01:42:53.394Z,11.94
2018-08-31T01:43:53.391Z,11.99
2018-08-31T01:44:53.388Z,11.83
2018-08-31T01:45:53.386Z,11.90
2018-08-31T01:46:53.381Z,11.91
2018-08-31T01:47:53.377Z,11.86
2018-08-31T01:48:53.374Z,11.80
2018-08-31T01:49:53.372Z,11.86
2018-08-31T01:50:53.369Z,11.84
2018-08-31T01:51:53.366Z,11.78
2018-08-31T01:52:53.375Z,11.87
2018-08-31T01:53:53.360Z,11.80
2018-08-31T01:54:53.359Z,11.77
2018-08-31T01:55:53.355Z,11.81
2018-08-31T01:56:53.350Z,11.68
2018-08-31T01:57:53.347Z,11.69
2018-08-31T01:58:53.345Z,11.69
2018-08-31T01:59:53.345Z,11.65
2018-08-31T02:00:53.338Z,11.65
2018-08-31T02:01:53.337Z,11.62
2018-08-31T02:02:53.330Z,11.59
2018-08-31T02:03:53.328Z,11.52
2018-08-31T02:04:53.326Z,11.55
2018-08-31T02:05:53.322Z,11.54
2018-08-31T02:06:53.319Z,11.63
2018-08-31T02:07:53.315Z,11.62
2018-08-31T02:08:53.312Z,11.65
2018-08-31T02:09:53.310Z,11.68
2018-08-31T02:10:53.306Z,11.73
2018-08-31T02:11:53.302Z,11.69
2018-08-31T02:12:53.299Z,11.78
2018-08-31T02:13:53.297Z,11.81
2018-08-31T02:14:53.293Z,12.00
2018-08-31T02:15:53.292Z,11.99
2018-08-31T02:16:53.290Z,12.06
2018-08-31T02:17:53.284Z,12.12
2018-08-31T02:18:53.281Z,12.17
2018-08-31T02:19:53.277Z,12.27
2018-08-31T02:20:53.273Z,12.31
2018-08-31T02:21:53.271Z,12.28
2018-08-31T02:22:53.266Z,12.28
2018-08-31T02:23:53.265Z,12.35
2018-08-31T02:24:53.261Z,12.28
2018-08-31T02:25:53.257Z,12.31
2018-08-31T02:26:53.254Z,12.27
2018-08-31T02:27:53.252Z,12.29
2018-08-31T02:28:53.249Z,12.28
2018-08-31T02:29:53.245Z,12.31
2018-08-31T02:30:53.241Z,12.24
2018-08-31T02:31:53.237Z,12.24
2018-08-31T02:32:53.235Z,12.24
2018-08-31T02:33:53.232Z,12.22
2018-08-31T02:34:53.227Z,12.18
2018-08-31T02:35:53.224Z,12.13
2018-08-31T02:36:53.222Z,12.15
2018-08-31T02:37:53.218Z,12.20
2018-08-31T02:38:53.214Z,12.31
2018-08-31T02:39:53.212Z,12.22
2018-08-31T02:40:53.211Z,12.31
2018-08-31T02:41:53.204Z,12.31
2018-08-31T02:42:53.202Z,12.36
2018-08-31T02:43:53.199Z,12.35
2018-08-31T02:44:53.200Z,12.36
2018-08-31T02:45:53.191Z,12.36
2018-08-31T02:46:53.192Z,12.25
2018-08-31T02:47:53.186Z,12.29
2018-08-31T02:48:53.182Z,12.31
2018-08-31T02:49:53.180Z,12.40
2018-08-31T02:50:53.176Z,12.31
2018-08-31T02:51:53.173Z,12.31
2018-08-31T02:52:53.170Z,12.31
2018-08-31T02:53:53.166Z,12.28
2018-08-31T02:54:53.162Z,12.31
2018-08-31T02:55:53.159Z,12.31
2018-08-31T02:56:53.157Z,12.29
2018-08-31T02:57:53.154Z,12.28
2018-08-31T02:58:53.149Z,12.24
2018-08-31T02:59:53.146Z,12.25
2018-08-31T03:00:53.142Z,12.22
2018-08-31T03:01:53.138Z,12.22
2018-08-31T03:02:53.135Z,12.25
2018-08-31T03:03:53.131Z,12.24
2018-08-31T03:04:53.129Z,12.25
2018-08-31T03:05:53.126Z,12.17
2018-08-31T03:06:53.122Z,12.17
2018-08-31T03:07:53.118Z,12.12
2018-08-31T03:08:53.118Z,12.18
2018-08-31T03:09:53.113Z,12.15
2018-08-31T03:10:53.109Z,12.10
2018-08-31T03:11:53.105Z,12.09
2018-08-31T03:12:53.103Z,12.12
2018-08-31T03:13:53.099Z,12.10
2018-08-31T03:14:53.095Z,11.99
2018-08-31T03:15:53.093Z,12.07
2018-08-31T03:16:53.090Z,12.02
2018-08-31T03:17:53.085Z,11.99
2018-08-31T03:18:53.083Z,12.00
2018-08-31T03:19:53.078Z,12.04
2018-08-31T03:20:53.075Z,12.03
2018-08-31T03:21:53.071Z,12.00
2018-08-31T03:22:53.072Z,11.86
2018-08-31T03:23:53.065Z,12.02
2018-08-31T03:24:53.063Z,11.91
2018-08-31T03:25:53.059Z,12.02
2018-08-31T03:26:53.055Z,11.88
2018-08-31T03:27:53.051Z,11.90
2018-08-31T03:28:53.048Z,12.00
2018-08-31T03:29:53.044Z,11.86
2018-08-31T03:30:53.044Z,11.91
2018-08-31T03:31:53.037Z,11.90
2018-08-31T03:32:53.033Z,11.91
2018-08-31T03:33:53.030Z,11.91
2018-08-31T03:34:53.029Z,11.90
2018-08-31T03:35:53.024Z,11.88
2018-08-31T03:36:53.077Z,11.90
2018-08-31T03:37:53.019Z,12.04
2018-08-31T03:38:53.014Z,11.99
2018-08-31T03:39:53.012Z,11.99
2018-08-31T03:40:53.011Z,12.09
2018-08-31T03:41:53.005Z,12.07
2018-08-31T03:42:52.999Z,12.06
2018-08-31T03:43:52.996Z,12.13
2018-08-31T03:44:52.994Z,12.07
2018-08-31T03:45:52.991Z,12.09
2018-08-31T03:46:52.987Z,12.15
2018-08-31T03:47:53.044Z,12.12
2018-08-31T03:48:52.980Z,12.03
2018-08-31T03:49:52.977Z,12.09
2018-08-31T03:50:52.976Z,12.04
2018-08-31T03:51:52.970Z,12.06
2018-08-31T03:52:52.967Z,12.04
2018-08-31T03:53:52.963Z,12.03
2018-08-31T03:54:52.960Z,11.99
2018-08-31T03:55:52.956Z,11.88
2018-08-31T03:56:52.953Z,12.00
2018-08-31T03:57:52.949Z,11.88
2018-08-31T03:58:52.946Z,11.94
2018-08-31T03:59:52.944Z,11.94
2018-08-31T04:00:52.940Z,11.94
2018-08-31T04:01:52.937Z,11.91
2018-08-31T04:02:52.933Z,11.87
2018-08-31T04:03:52.929Z,11.81
2018-08-31T04:04:52.928Z,11.78
2018-08-31T04:05:52.921Z,11.81
2018-08-31T04:06:52.919Z,11.81
2018-08-31T04:07:52.919Z,11.81
2018-08-31T04:08:52.913Z,11.70
2018-08-31T04:09:52.909Z,11.77
2018-08-31T04:10:52.906Z,11.72
2018-08-31T04:11:52.905Z,11.81
2018-08-31T04:12:52.898Z,11.78
2018-08-31T04:13:52.895Z,11.70
2018-08-31T04:14:52.903Z,11.69
2018-08-31T04:15:52.890Z,11.81
2018-08-31T04:16:52.888Z,11.77
2018-08-31T04:17:52.882Z,11.70
2018-08-31T04:18:52.879Z,11.60
2018-08-31T04:19:52.877Z,11.68
2018-08-31T04:20:52.873Z,11.62
2018-08-31T04:21:52.871Z,11.57
2018-08-31T04:22:52.865Z,11.50
2018-08-31T04:23:52.860Z,11.51
2018-08-31T04:24:52.858Z,11.52
2018-08-31T04:25:52.855Z,11.52
2018-08-31T04:26:52.852Z,11.52
2018-08-31T04:27:52.848Z,11.48
2018-08-31T04:28:52.845Z,11.50
2018-08-31T04:29:52.840Z,11.54
2018-08-31T04:30:52.837Z,11.48
2018-08-31T04:31:52.834Z,11.50
2018-08-31T04:32:52.830Z,11.55
2018-08-31T04:33:52.827Z,11.47
2018-08-31T04:34:52.823Z,11.54
2018-08-31T04:35:52.820Z,11.51
2018-08-31T04:36:52.818Z,11.50
2018-08-31T04:37:52.815Z,11.51
2018-08-31T04:38:52.808Z,11.52
2018-08-31T04:39:52.806Z,11.52
2018-08-31T04:40:52.804Z,11.50
2018-08-31T04:41:52.800Z,11.59
2018-08-31T04:42:52.804Z,11.54
2018-08-31T04:43:52.793Z,11.57
2018-08-31T04:44:52.790Z,11.54
2018-08-31T04:45:52.785Z,11.54
2018-08-31T04:46:52.834Z,11.51
2018-08-31T04:47:52.780Z,11.55
2018-08-31T04:48:52.775Z,11.51
2018-08-31T04:49:52.770Z,11.65
2018-08-31T04:50:52.770Z,11.50
2018-08-31T04:51:52.765Z,11.50
2018-08-31T04:52:52.762Z,11.54
2018-08-31T04:53:52.757Z,11.65
2018-08-31T04:54:52.753Z,11.62
2018-08-31T04:55:52.752Z,11.68
2018-08-31T04:56:52.747Z,11.69
2018-08-31T04:57:52.744Z,11.66
2018-08-31T04:58:52.828Z,11.63
2018-08-31T04:59:52.736Z,11.68
2018-08-31T05:00:52.732Z,11.72
2018-08-31T05:01:52.728Z,11.70
2018-08-31T05:02:52.725Z,11.77
2018-08-31T05:03:52.723Z,11.84
2018-08-31T05:04:52.720Z,11.83
2018-08-31T05:05:52.715Z,11.80
2018-08-31T05:06:52.711Z,11.86
2018-08-31T05:07:52.710Z,11.95
2018-08-31T05:08:52.707Z,11.91
2018-08-31T05:09:52.703Z,11.91
2018-08-31T05:10:52.699Z,11.99
2018-08-31T05:11:52.695Z,11.88
2018-08-31T05:12:52.692Z,12.02
2018-08-31T05:13:52.687Z,11.99
2018-08-31T05:14:52.684Z,11.97
2018-08-31T05:15:52.710Z,12.04
2018-08-31T05:16:52.680Z,12.04
2018-08-31T05:17:52.674Z,12.13
2018-08-31T05:18:52.672Z,12.13
2018-08-31T05:19:52.668Z,12.17
2018-08-31T05:20:52.667Z,12.15
2018-08-31T05:21:52.666Z,12.25
2018-08-31T05:22:52.705Z,12.35
2018-08-31T05:23:52.655Z,12.27
2018-08-31T05:24:52.652Z,12.42
2018-08-31T05:25:52.648Z,12.42
2018-08-31T05:26:52.644Z,12.43
2018-08-31T05:27:52.641Z,12.40
2018-08-31T05:28:52.640Z,12.46
2018-08-31T05:29:52.635Z,12.40
2018-08-31T05:30:52.636Z,12.58
2018-08-31T05:31:52.628Z,12.61
2018-08-31T05:32:52.626Z,12.55
2018-08-31T05:33:52.621Z,12.49
2018-08-31T05:34:52.709Z,12.67
2018-08-31T05:35:52.615Z,12.64
2018-08-31T05:36:52.612Z,12.67
2018-08-31T05:37:52.609Z,12.65
2018-08-31T05:38:52.607Z,12.67
2018-08-31T05:39:52.605Z,12.73
2018-08-31T05:40:52.600Z,12.70
2018-08-31T05:41:52.596Z,12.76
2018-08-31T05:42:52.595Z,12.73
2018-08-31T05:43:52.591Z,12.73
2018-08-31T05:44:52.588Z,12.82
2018-08-31T05:45:52.584Z,12.83
2018-08-31T05:46:52.582Z,12.82
2018-08-31T05:47:52.580Z,12.76
2018-08-31T05:48:52.576Z,12.83
2018-08-31T05:49:52.573Z,12.87
2018-08-31T05:50:52.570Z,12.87
2018-08-31T05:51:52.568Z,12.93
2018-08-31T05:52:52.565Z,12.82
2018-08-31T05:53:52.561Z,12.97
2018-08-31T05:54:52.559Z,13.00
2018-08-31T05:55:52.557Z,13.00
2018-08-31T05:56:52.554Z,12.91
2018-08-31T05:57:52.549Z,13.09
2018-08-31T05:58:52.548Z,13.11
2018-08-31T05:59:52.545Z,13.20
2018-08-31T06:00:52.543Z,13.16
2018-08-31T06:01:52.539Z,13.22
2018-08-31T06:02:52.535Z,13.18
2018-08-31T06:03:52.533Z,13.23
2018-08-31T06:04:52.533Z,13.30
2018-08-31T06:05:52.528Z,13.42
2018-08-31T06:06:52.526Z,13.28
2018-08-31T06:07:52.523Z,13.38
2018-08-31T06:08:52.522Z,13.46
2018-08-31T06:09:52.520Z,13.47
2018-08-31T06:10:52.517Z,13.56
2018-08-31T06:11:52.559Z,13.56
2018-08-31T06:12:52.512Z,13.68
2018-08-31T06:13:52.509Z,13.75
2018-08-31T06:14:52.507Z,13.77
2018-08-31T06:15:52.505Z,13.86
2018-08-31T06:16:52.503Z,13.86
2018-08-31T06:17:52.499Z,13.93
2018-08-31T06:18:52.497Z,13.95
2018-08-31T06:19:52.494Z,13.92
2018-08-31T06:20:52.518Z,13.83
2018-08-31T06:21:52.491Z,13.95
2018-08-31T06:22:52.487Z,13.86
2018-08-31T06:23:52.486Z,13.86
2018-08-31T06:24:52.484Z,13.93
2018-08-31T06:25:52.481Z,13.93
2018-08-31T06:26:52.479Z,13.96
2018-08-31T06:27:52.478Z,13.86
2018-08-31T06:28:52.475Z,13.95
2018-08-31T06:29:52.473Z,14.00
2018-08-31T06:30:52.469Z,14.07
2018-08-31T06:31:52.468Z,13.97
2018-08-31T06:32:52.467Z,13.96
2018-08-31T06:33:52.481Z,13.95
2018-08-31T06:34:52.461Z,13.96
2018-08-31T06:35:52.460Z,14.04
2018-08-31T06:36:52.457Z,14.10
2018-08-31T06:37:52.454Z,14.05
2018-08-31T06:38:52.479Z,14.14
2018-08-31T06:39:52.454Z,14.20
2018-08-31T06:40:52.466Z,14.18
2018-08-31T06:41:52.446Z,14.15
2018-08-31T06:42:52.444Z,14.18
2018-08-31T06:43:52.444Z,14.23
2018-08-31T06:44:52.443Z,14.25
2018-08-31T06:45:52.440Z,14.23
2018-08-31T06:46:52.437Z,14.40
2018-08-31T06:47:52.436Z,14.43
2018-08-31T06:48:52.433Z,14.35
2018-08-31T06:49:52.433Z,14.35
2018-08-31T06:50:52.429Z,14.43
2018-08-31T06:51:52.430Z,14.51
2018-08-31T06:52:52.427Z,14.53
2018-08-31T06:53:52.427Z,14.68
2018-08-31T06:54:52.422Z,14.63
2018-08-31T06:55:52.422Z,14.72
2018-08-31T06:56:52.420Z,14.81
2018-08-31T06:57:52.418Z,14.89
2018-08-31T06:58:52.417Z,15.03
2018-08-31T06:59:52.417Z,15.00
2018-08-31T07:00:52.415Z,15.02
2018-08-31T07:01:52.411Z,15.03
2018-08-31T07:02:52.410Z,15.09
2018-08-31T07:03:52.483Z,15.11
2018-08-31T07:04:52.409Z,15.11
2018-08-31T07:05:52.411Z,15.17
2018-08-31T07:06:52.408Z,15.22
2018-08-31T07:07:52.405Z,15.21
2018-08-31T07:08:52.403Z,15.28
2018-08-31T07:09:52.402Z,15.40
2018-08-31T07:10:52.402Z,15.47
2018-08-31T07:11:52.402Z,15.39
2018-08-31T07:12:52.404Z,15.52
2018-08-31T07:13:52.399Z,15.59
2018-08-31T07:14:52.397Z,15.58
2018-08-31T07:15:52.398Z,15.58
2018-08-31T07:16:52.396Z,15.58
2018-08-31T07:17:52.397Z,15.65
2018-08-31T07:18:52.394Z,15.72
2018-08-31T07:19:52.486Z,15.83
2018-08-31T07:20:52.395Z,15.86
2018-08-31T07:21:52.393Z,15.91
2018-08-31T07:22:52.393Z,15.88
2018-08-31T07:23:52.391Z,15.92
2018-08-31T07:24:52.392Z,15.68
2018-08-31T07:25:52.396Z,15.67
2018-08-31T07:26:52.404Z,15.73
2018-08-31T07:27:52.391Z,15.84
2018-08-31T07:28:52.390Z,16.05
2018-08-31T07:29:52.389Z,16.16
2018-08-31T07:30:52.388Z,16.15
2018-08-31T07:31:52.389Z,16.17
2018-08-31T07:32:52.391Z,16.28
2018-08-31T07:33:52.387Z,16.24
2018-08-31T07:34:52.387Z,16.28
2018-08-31T07:35:52.394Z,16.32
2018-08-31T07:36:52.388Z,16.31
2018-08-31T07:37:52.387Z,16.29
2018-08-31T07:38:52.387Z,16.31
2018-08-31T07:39:52.386Z,16.39
2018-08-31T07:40:52.388Z,16.42
2018-08-31T07:41:52.385Z,16.38
2018-08-31T07:42:52.390Z,16.47
2018-08-31T07:43:52.386Z,16.50
2018-08-31T07:44:52.387Z,16.53
2018-08-31T07:45:52.386Z,16.49
2018-08-31T07:46:52.386Z,16.38
2018-08-31T07:47:52.440Z,16.60
2018-08-31T07:48:52.388Z,16.49
2018-08-31T07:49:52.385Z,16.56
2018-08-31T07:50:52.386Z,16.68
2018-08-31T07:51:52.387Z,16.64
2018-08-31T07:52:52.392Z,16.75
2018-08-31T07:53:52.451Z,16.79
2018-08-31T07:54:52.389Z,16.78
2018-08-31T07:55:52.389Z,16.74
2018-08-31T07:56:52.390Z,16.66
2018-08-31T07:57:52.392Z,16.68
2018-08-31T07:58:52.390Z,16.71
2018-08-31T07:59:52.392Z,16.84
2018-08-31T08:00:52.391Z,16.96
2018-08-31T08:01:52.391Z,16.97
2018-08-31T08:02:52.393Z,17.04
2018-08-31T08:03:52.392Z,17.06
2018-08-31T08:04:52.395Z,17.04
2018-08-31T08:05:52.393Z,17.16
2018-08-31T08:06:52.395Z,17.19
2018-08-31T08:07:52.395Z,17.29
2018-08-31T08:08:52.397Z,17.26
2018-08-31T08:09:52.432Z,17.26
2018-08-31T08:10:52.398Z,17.22
2018-08-31T08:11:52.398Z,17.06
2018-08-31T08:12:52.400Z,17.08
2018-08-31T08:13:52.400Z,16.97
2018-08-31T08:14:52.436Z,16.89
2018-08-31T08:15:52.401Z,16.99
2018-08-31T08:16:52.405Z,17.09
2018-08-31T08:17:52.402Z,17.06
2018-08-31T08:18:52.404Z,17.20
2018-08-31T08:19:52.405Z,16.86
2018-08-31T08:20:52.407Z,17.01
2018-08-31T08:21:52.408Z,17.20
2018-08-31T08:22:52.408Z,17.29
2018-08-31T08:23:52.408Z,17.26
2018-08-31T08:24:52.410Z,17.29
2018-08-31T08:25:52.409Z,17.31
2018-08-31T08:26:52.411Z,17.54
2018-08-31T08:27:52.415Z,17.59
2018-08-31T08:28:52.415Z,17.59
2018-08-31T08:29:52.416Z,17.72
2018-08-31T08:30:52.416Z,17.76
2018-08-31T08:31:52.420Z,17.94
2018-08-31T08:32:52.419Z,18.05
2018-08-31T08:33:52.421Z,18.38
2018-08-31T08:34:52.421Z,18.47
2018-08-31T08:35:52.472Z,18.52
2018-08-31T08:36:52.426Z,18.58
2018-08-31T08:37:52.428Z,18.40
2018-08-31T08:38:55.051Z,18.50
2018-08-31T08:39:52.431Z,18.70
2018-08-31T08:40:52.432Z,18.98
2018-08-31T08:41:52.494Z,19.26
2018-08-31T08:42:52.437Z,19.54
2018-08-31T08:43:52.440Z,19.49
2018-08-31T08:44:52.441Z,19.49
2018-08-31T08:45:52.443Z,19.71
2018-08-31T08:46:52.447Z,19.16
2018-08-31T08:47:52.450Z,19.19
2018-08-31T08:48:52.455Z,18.70
2018-08-31T08:49:52.455Z,19.00
2018-08-31T08:50:52.459Z,18.92
2018-08-31T08:51:52.462Z,18.90
2018-08-31T08:52:52.466Z,18.98
2018-08-31T08:53:52.469Z,19.02
2018-08-31T08:54:52.474Z,19.04
2018-08-31T08:55:52.478Z,18.80
2018-08-31T08:56:52.481Z,19.18
2018-08-31T08:57:52.484Z,19.30
2018-08-31T08:58:52.486Z,19.39
2018-08-31T08:59:52.492Z,19.55
2018-08-31T09:00:52.494Z,19.67
2018-08-31T09:01:52.498Z,19.95
2018-08-31T09:02:52.502Z,20.40
2018-08-31T09:03:52.506Z,20.52
2018-08-31T09:04:52.510Z,20.74
2018-08-31T09:05:52.518Z,20.92
2018-08-31T09:06:52.517Z,20.85
2018-08-31T09:07:52.521Z,21.18
2018-08-31T09:08:52.525Z,21.37
2018-08-31T09:09:52.534Z,21.46
2018-08-31T09:10:52.534Z,21.60
2018-08-31T09:11:52.589Z,21.60
2018-08-31T09:12:52.543Z,21.82
2018-08-31T09:13:52.550Z,22.10
2018-08-31T09:14:52.552Z,21.83
2018-08-31T09:15:52.557Z,22.15
2018-08-31T09:16:52.562Z,22.29
2018-08-31T09:17:52.568Z,22.15
2018-08-31T09:18:52.573Z,22.48
2018-08-31T09:19:52.578Z,22.23
2018-08-31T09:20:52.584Z,21.51
2018-08-31T09:21:52.588Z,21.51
2018-08-31T09:22:52.593Z,21.85
2018-08-31T09:23:52.602Z,22.39
2018-08-31T09:24:52.608Z,22.53
2018-08-31T09:25:52.613Z,22.81
2018-08-31T09:26:52.621Z,22.75
2018-08-31T09:27:52.626Z,22.75
2018-08-31T09:28:52.635Z,22.78
2018-08-31T09:29:52.638Z,22.68
2018-08-31T09:30:52.644Z,22.36
2018-08-31T09:31:52.652Z,21.66
2018-08-31T09:32:52.660Z,20.60
2018-08-31T09:33:52.669Z,20.04
2018-08-31T09:34:52.676Z,20.02
2018-08-31T09:35:52.680Z,19.92
2018-08-31T09:36:52.687Z,20.06
2018-08-31T09:37:52.698Z,20.43
2018-08-31T09:38:52.701Z,20.52
2018-08-31T09:39:52.710Z,20.51
2018-08-31T09:40:52.714Z,20.31
2018-08-31T09:41:52.720Z,20.09
2018-08-31T09:42:52.726Z,19.77
2018-08-31T09:43:52.779Z,19.58
2018-08-31T09:44:52.739Z,19.58
2018-08-31T09:45:52.748Z,19.69
2018-08-31T09:46:52.750Z,19.76
2018-08-31T09:47:52.757Z,19.89
2018-08-31T09:48:52.763Z,19.49
2018-08-31T09:49:52.766Z,19.40
2018-08-31T09:50:52.772Z,18.93
2018-08-31T09:51:52.779Z,18.88
2018-08-31T09:52:52.782Z,18.75
2018-08-31T09:53:52.789Z,18.75
2018-08-31T09:54:52.794Z,18.77
2018-08-31T09:55:52.801Z,18.65
2018-08-31T09:56:52.802Z,18.95
2018-08-31T09:57:52.808Z,19.12
2018-08-31T09:58:52.812Z,19.29
2018-08-31T09:59:52.816Z,19.44
2018-08-31T10:00:52.822Z,19.54
2018-08-31T10:01:52.827Z,19.62
2018-08-31T10:02:52.829Z,19.73
2018-08-31T10:03:52.835Z,19.84
2018-08-31T10:04:52.839Z,19.92
2018-08-31T10:05:52.842Z,20.11
2018-08-31T10:06:52.846Z,20.21
2018-08-31T10:07:52.851Z,20.25
2018-08-31T10:08:52.858Z,20.34
2018-08-31T10:09:52.860Z,20.29
2018-08-31T10:10:52.907Z,20.41
2018-08-31T10:11:52.867Z,20.48
2018-08-31T10:12:52.874Z,20.52
2018-08-31T10:13:52.875Z,20.56
2018-08-31T10:14:52.879Z,20.50
2018-08-31T10:15:52.886Z,20.16
2018-08-31T10:16:52.889Z,20.39
2018-08-31T10:17:52.892Z,20.22
2018-08-31T10:18:53.000Z,20.41
2018-08-31T10:19:52.900Z,20.74
2018-08-31T10:20:52.909Z,20.93
2018-08-31T10:21:52.908Z,20.88
2018-08-31T10:22:52.913Z,20.60
2018-08-31T10:23:52.922Z,20.47
2018-08-31T10:24:52.923Z,20.18
2018-08-31T10:25:52.926Z,20.16
2018-08-31T10:26:52.930Z,20.51
2018-08-31T10:27:52.936Z,20.72
2018-08-31T10:28:52.945Z,20.93
2018-08-31T10:29:52.943Z,20.95
2018-08-31T10:30:52.949Z,21.20
2018-08-31T10:31:52.956Z,20.90
2018-08-31T10:32:52.959Z,21.20
2018-08-31T10:33:52.963Z,21.30
2018-08-31T10:34:52.967Z,21.50
2018-08-31T10:35:52.973Z,21.62
2018-08-31T10:36:52.978Z,21.77
2018-08-31T10:37:52.985Z,21.73
2018-08-31T10:38:52.985Z,21.17
2018-08-31T10:39:52.991Z,20.80
2018-08-31T10:40:52.997Z,20.10
2018-08-31T10:41:53.000Z,20.18
2018-08-31T10:42:53.005Z,20.43
2018-08-31T10:43:53.012Z,20.69
2018-08-31T10:44:53.015Z,20.84
2018-08-31T10:45:53.020Z,21.07
2018-08-31T10:46:53.039Z,21.21
2018-08-31T10:47:53.030Z,21.40
2018-08-31T10:48:53.036Z,21.45
2018-08-31T10:49:53.039Z,21.46
2018-08-31T10:50:53.046Z,21.55
2018-08-31T10:51:53.051Z,21.69
2018-08-31T10:52:53.060Z,21.82
2018-08-31T10:53:53.061Z,21.95
2018-08-31T10:54:53.065Z,21.70
2018-08-31T10:55:53.071Z,21.52
2018-08-31T10:56:53.077Z,21.48
2018-08-31T10:57:53.081Z,21.09
2018-08-31T10:58:53.086Z,21.06
2018-08-31T10:59:53.093Z,21.05
2018-08-31T11:00:53.097Z,21.15
2018-08-31T11:01:53.102Z,21.20
2018-08-31T11:02:53.107Z,21.40
2018-08-31T11:03:53.112Z,21.48
2018-08-31T11:04:53.117Z,21.27
2018-08-31T11:05:53.128Z,21.27
2018-08-31T11:06:53.129Z,21.25
2018-08-31T11:07:53.134Z,21.54
2018-08-31T11:08:53.139Z,21.52
2018-08-31T11:09:53.144Z,21.55
2018-08-31T11:10:53.148Z,21.70
2018-08-31T11:11:53.155Z,21.95
2018-08-31T11:12:53.194Z,22.08
2018-08-31T11:13:53.166Z,22.14
2018-08-31T11:14:53.169Z,21.80
2018-08-31T11:15:53.175Z,21.76
2018-08-31T11:16:53.180Z,21.70
2018-08-31T11:17:53.185Z,21.75
2018-08-31T11:18:53.242Z,21.57
2018-08-31T11:19:53.197Z,21.20
2018-08-31T11:20:53.201Z,20.72
2018-08-31T11:21:53.207Z,20.50
2018-08-31T11:22:53.212Z,20.90
2018-08-31T11:23:53.216Z,21.06
2018-08-31T11:24:53.222Z,21.15
2018-08-31T11:25:53.230Z,20.66
2018-08-31T11:26:53.231Z,20.31
2018-08-31T11:27:53.246Z,20.26
2018-08-31T11:28:53.242Z,20.06
2018-08-31T11:29:53.247Z,20.25
2018-08-31T11:30:53.251Z,20.52
2018-08-31T11:31:53.256Z,20.22
2018-08-31T11:32:53.262Z,20.22
2018-08-31T11:33:53.265Z,20.31
2018-08-31T11:34:53.273Z,20.50
2018-08-31T11:35:53.275Z,20.81
2018-08-31T11:36:53.280Z,20.88
2018-08-31T11:37:53.286Z,20.97
2018-08-31T11:38:53.289Z,20.84
2018-08-31T11:39:53.293Z,20.90
2018-08-31T11:40:53.298Z,20.75
2018-08-31T11:41:53.303Z,20.67
2018-08-31T11:42:53.307Z,20.51
2018-08-31T11:43:53.313Z,20.52
2018-08-31T11:44:53.318Z,20.47
2018-08-31T11:45:53.321Z,20.41
2018-08-31T11:46:53.326Z,20.47
2018-08-31T11:47:53.332Z,20.50
2018-08-31T11:48:53.335Z,20.65
2018-08-31T11:49:53.342Z,20.66
2018-08-31T11:50:53.343Z,20.66
2018-08-31T11:51:53.347Z,20.72
2018-08-31T11:52:53.352Z,20.95
2018-08-31T11:53:53.356Z,20.92
2018-08-31T11:54:53.360Z,20.63
2018-08-31T11:55:53.365Z,20.60
2018-08-31T11:56:53.371Z,20.84
2018-08-31T11:57:53.374Z,20.78
2018-08-31T11:58:53.382Z,20.67
2018-08-31T11:59:53.383Z,20.92
2018-08-31T12:00:53.390Z,20.95
2018-08-31T12:01:53.447Z,21.06
2018-08-31T12:02:53.396Z,20.90
2018-08-31T12:03:53.400Z,20.96
2018-08-31T12:04:53.406Z,20.77
2018-08-31T12:05:53.410Z,20.74
2018-08-31T12:06:53.412Z,20.88
2018-08-31T12:07:53.458Z,20.88
2018-08-31T12:08:53.421Z,20.93
2018-08-31T12:09:53.424Z,20.93
2018-08-31T12:10:53.430Z,20.90
2018-08-31T12:11:53.434Z,20.80
2018-08-31T12:12:53.440Z,20.90
2018-08-31T12:13:53.442Z,21.17
2018-08-31T12:14:53.447Z,21.37
2018-08-31T12:15:53.451Z,21.27
2018-08-31T12:16:53.455Z,21.30
2018-08-31T12:17:53.462Z,21.39
2018-08-31T12:18:53.463Z,21.06
2018-08-31T12:19:53.468Z,20.93
2018-08-31T12:20:53.507Z,21.05
2018-08-31T12:21:53.478Z,21.32
2018-08-31T12:22:53.479Z,21.37
2018-08-31T12:23:53.484Z,21.45
2018-08-31T12:24:53.488Z,21.54
2018-08-31T12:25:53.493Z,21.45
2018-08-31T12:26:53.499Z,21.45
2018-08-31T12:27:53.501Z,21.25
2018-08-31T12:28:53.506Z,21.29
2018-08-31T12:29:53.511Z,21.27
2018-08-31T12:30:53.515Z,21.29
2018-08-31T12:31:53.519Z,21.00
2018-08-31T12:32:53.524Z,21.02
2018-08-31T12:33:53.527Z,20.95
2018-08-31T12:34:53.532Z,21.15
2018-08-31T12:35:53.537Z,21.32
2018-08-31T12:36:53.541Z,21.55
2018-08-31T12:37:53.545Z,21.57
2018-08-31T12:38:53.550Z,21.51
2018-08-31T12:39:53.553Z,21.36
2018-08-31T12:40:53.559Z,21.30
2018-08-31T12:41:53.562Z,21.25
2018-08-31T12:42:53.566Z,21.24
2018-08-31T12:43:53.723Z,21.12
2018-08-31T12:44:53.576Z,20.96
2018-08-31T12:45:53.580Z,20.99
2018-08-31T12:46:53.584Z,20.96
2018-08-31T12:47:53.591Z,20.87
2018-08-31T12:48:53.592Z,20.92
2018-08-31T12:49:53.604Z,20.77
2018-08-31T12:50:53.602Z,20.81
2018-08-31T12:51:53.605Z,20.93
2018-08-31T12:52:53.613Z,20.48